Time;durP1;ratioP1;P1;durP2;ratioP2;P2;SDS_P1;SDS_P2;PMS_P1;PMS_P2;Temp;Humidity;BMP_temperature;BMP_pressure;BME280_temperature;BME280_humidity;BME280_pressure;Samples;Min_cycle;Max_cycle;Signal;HPM_P1;HPM_P2
2022/05/18 00:33:54;;;;;;;1.98;0.77;;;;;;;;;;6337486;22;20057;-86
2022/05/18 01:21:20;;;;;;;3.25;0.93;;;;;;;;;;6341898;22;20113;-86
2022/05/18 01:49:46;;;;;;;3.15;0.95;;;;;;;;;;6211122;23;20027;-87
2022/05/18 04:39:01;;;;;;;;;;;;;;;;;;6360565;22;20019;-84
2022/05/18 04:41:30;;;;;;;2.13;1.08;;;;;;;;;;6362206;22;19921;-84
2022/05/18 05:02:09;;;;;;;4.35;1.40;;;;;;;;;;6368530;22;20017;-84
2022/05/18 05:04:37;;;;;;;7.03;1.30;;;;;;;;;;6342810;22;20018;-85
2022/05/18 05:07:05;;;;;;;4.20;1.33;;;;;;;;;;6344200;22;20026;-85
2022/05/18 05:09:38;;;;;;;3.47;1.05;;;;;;;;;;6362000;22;20026;-86
2022/05/18 05:13:25;;;;;;;3.83;1.55;;;;;;;;;;6365257;22;20018;-85
2022/05/18 05:16:05;;;;;;;3.80;2.20;;;;;;;;;;6282112;22;20022;-87
2022/05/18 05:19:55;;;;;;;3.97;1.27;;;;;;;;;;6182381;23;20064;-85
2022/05/18 05:27:05;;;;;;;3.83;1.60;;;;;;;;;;6120896;23;20037;-85
2022/05/18 05:38:57;;;;;;;2.13;1.30;;;;;;;;;;6096704;23;20119;-84
2022/05/18 05:42:21;;;;;;;3.33;1.50;;;;;;;;;;6022689;23;20118;-85
2022/05/18 05:46:44;;;;;;;4.28;1.92;;;;;;;;;;6076869;23;20026;-84
2022/05/18 05:49:15;;;;;;;7.75;1.90;;;;;;;;;;6074192;23;20114;-83
2022/05/18 05:51:43;;;;;;;5.70;1.90;;;;;;;;;;6079740;23;20019;-85
2022/05/18 05:54:11;;;;;;;5.38;1.70;;;;;;;;;;6100874;23;20067;-83
2022/05/18 05:56:39;;;;;;;5.13;1.65;;;;;;;;;;6123465;23;20026;-84
2022/05/18 05:59:07;;;;;;;6.07;2.00;;;;;;;;;;6169113;23;20043;-83
2022/05/18 06:01:35;;;;;;;3.15;1.50;;;;;;;;;;6219170;23;20494;-84
2022/05/18 06:04:07;;;;;;;4.25;1.90;;;;;;;;;;6214020;23;20048;-84
2022/05/18 06:06:37;;;;;;;3.33;1.60;;;;;;;;;;6209746;23;20108;-85
2022/05/18 06:09:07;;;;;;;3.78;1.88;;;;;;;;;;6211612;23;20703;-85
2022/05/18 06:11:36;;;;;;;3.00;1.50;;;;;;;;;;6213833;22;20055;-85
2022/05/18 06:14:05;;;;;;;5.10;1.95;;;;;;;;;;6273943;22;20050;-84
2022/05/18 06:16:33;;;;;;;6.38;1.73;;;;;;;;;;6343811;22;20109;-85
2022/05/18 06:19:01;;;;;;;4.30;2.10;;;;;;;;;;6371255;22;20018;-85
2022/05/18 06:21:33;;;;;;;6.00;2.38;;;;;;;;;;6369760;22;20478;-85
2022/05/18 06:24:01;;;;;;;4.93;1.80;;;;;;;;;;6332585;22;20037;-84
2022/05/18 06:26:29;;;;;;;6.90;2.00;;;;;;;;;;6369582;22;20021;-85
2022/05/18 06:28:57;;;;;;;6.03;2.60;;;;;;;;;;6370177;22;20022;-85
2022/05/18 06:31:25;;;;;;;4.70;2.00;;;;;;;;;;6328755;22;20417;-85
2022/05/18 06:33:53;;;;;;;4.45;2.00;;;;;;;;;;6368886;22;20053;-85
2022/05/18 06:36:21;;;;;;;4.05;1.90;;;;;;;;;;6370995;22;20021;-85
2022/05/18 06:38:49;;;;;;;6.32;2.33;;;;;;;;;;6367975;22;20466;-84
2022/05/18 06:41:23;;;;;;;7.68;1.92;;;;;;;;;;6357338;22;20034;-84
2022/05/18 06:44:02;;;;;;;3.88;2.00;;;;;;;;;;6354728;22;20027;-83
2022/05/18 06:46:34;;;;;;;8.20;2.55;;;;;;;;;;6366347;22;20014;-83
2022/05/18 06:49:05;;;;;;;10.18;3.35;;;;;;;;;;6329569;22;20821;-84
2022/05/18 06:51:36;;;;;;;2.92;1.95;;;;;;;;;;6367088;22;20025;-83
2022/05/18 06:54:04;;;;;;;3.10;1.90;;;;;;;;;;6367654;22;20042;-83
2022/05/18 06:56:36;;;;;;;4.15;2.35;;;;;;;;;;6367207;22;20014;-84
2022/05/18 06:59:04;;;;;;;5.15;2.33;;;;;;;;;;6367914;22;20063;-84
2022/05/18 07:01:34;;;;;;;6.40;2.55;;;;;;;;;;6330186;22;20436;-84
2022/05/18 07:04:02;;;;;;;4.25;2.40;;;;;;;;;;6330933;22;20109;-83
2022/05/18 07:06:34;;;;;;;6.00;2.47;;;;;;;;;;6329644;22;20021;-83
2022/05/18 07:09:07;;;;;;;5.35;2.30;;;;;;;;;;6304276;22;20364;-83
2022/05/18 07:11:42;;;;;;;4.63;2.25;;;;;;;;;;6368735;22;20023;-83
2022/05/18 07:14:09;;;;;;;5.47;2.78;;;;;;;;;;6366860;22;20018;-83
2022/05/18 07:16:37;;;;;;;6.00;2.70;;;;;;;;;;6365074;22;20388;-83
2022/05/18 07:19:05;;;;;;;6.00;2.75;;;;;;;;;;6369333;22;20022;-83
2022/05/18 07:21:33;;;;;;;4.20;2.45;;;;;;;;;;6365436;22;20022;-83
2022/05/18 07:24:02;;;;;;;3.70;2.25;;;;;;;;;;6356151;22;20090;-83
2022/05/18 07:26:32;;;;;;;5.50;2.58;;;;;;;;;;6365758;22;20018;-83
2022/05/18 07:29:05;;;;;;;4.85;2.75;;;;;;;;;;6356318;22;20395;-84
2022/05/18 07:34:27;;;;;;;12.60;2.90;;;;;;;;;;6355418;22;20463;-83
2022/05/18 07:36:56;;;;;;;6.45;3.25;;;;;;;;;;6365323;22;20014;-84
2022/05/18 07:39:23;;;;;;;6.05;3.10;;;;;;;;;;6328709;22;20026;-84
2022/05/18 07:41:51;;;;;;;6.60;2.95;;;;;;;;;;6365826;22;20063;-83
2022/05/18 07:44:21;;;;;;;5.70;2.85;;;;;;;;;;6365868;22;20026;-83
2022/05/18 07:46:52;;;;;;;7.82;3.10;;;;;;;;;;6365936;22;20066;-83
2022/05/18 07:49:45;;;;;;;6.82;3.00;;;;;;;;;;6367001;22;20147;-83
2022/05/18 07:52:17;;;;;;;6.45;3.25;;;;;;;;;;6328002;22;20813;-84
2022/05/18 07:54:50;;;;;;;7.88;2.72;;;;;;;;;;6354966;22;20030;-83
2022/05/18 07:57:21;;;;;;;7.10;3.35;;;;;;;;;;6331154;22;20022;-84
2022/05/18 07:59:59;;;;;;;7.50;3.30;;;;;;;;;;6341374;22;20530;-84
2022/05/18 08:02:37;;;;;;;6.93;2.83;;;;;;;;;;6355167;22;20030;-84
2022/05/18 08:05:11;;;;;;;9.93;3.75;;;;;;;;;;6368202;22;20022;-83
2022/05/18 08:07:45;;;;;;;7.97;3.10;;;;;;;;;;6367718;22;20010;-83
2022/05/18 08:15:55;;;;;;;6.50;2.97;;;;;;;;;;6366268;22;20015;-84
2022/05/18 08:18:23;;;;;;;4.75;3.00;;;;;;;;;;6365067;22;20014;-84
2022/05/18 08:20:55;;;;;;;6.20;2.88;;;;;;;;;;6353900;22;20817;-83
2022/05/18 08:23:25;;;;;;;8.32;3.05;;;;;;;;;;6366654;22;20017;-84
2022/05/18 08:25:57;;;;;;;5.63;2.80;;;;;;;;;;6366104;22;20711;-83
2022/05/18 08:28:27;;;;;;;5.32;2.83;;;;;;;;;;6367825;22;20755;-83
2022/05/18 08:30:58;;;;;;;5.95;3.30;;;;;;;;;;6354968;22;20019;-84
2022/05/18 08:33:31;;;;;;;9.32;3.60;;;;;;;;;;6369417;22;20025;-84
2022/05/18 08:36:07;;;;;;;7.38;3.17;;;;;;;;;;6367522;22;20128;-84
2022/05/18 08:38:36;;;;;;;5.68;3.28;;;;;;;;;;6366950;22;20033;-84
2022/05/18 08:41:30;;;;;;;9.18;3.40;;;;;;;;;;6366676;22;20019;-85
2022/05/18 08:44:06;;;;;;;6.85;2.60;;;;;;;;;;6328757;22;20573;-84
2022/05/18 08:46:43;;;;;;;6.53;3.35;;;;;;;;;;6366826;22;20059;-84
2022/05/18 08:49:31;;;;;;;5.03;3.20;;;;;;;;;;6368196;22;20019;-84
2022/05/18 08:52:03;;;;;;;5.65;3.58;;;;;;;;;;6369096;22;20019;-84
2022/05/18 08:54:52;;;;;;;7.15;3.60;;;;;;;;;;6366320;22;20014;-84
2022/05/18 08:57:48;;;;;;;7.63;3.40;;;;;;;;;;6347272;22;20348;-84
2022/05/18 09:01:02;;;;;;;;;;;;;;;;;;6333623;22;20079;-84
2022/05/18 09:05:03;;;;;;;7.07;3.10;;;;;;;;;;6299961;22;19926;-84
2022/05/18 09:08:06;;;;;;;13.23;3.80;;;;;;;;;;6276858;22;20459;-84
2022/05/18 09:10:45;;;;;;;8.50;3.50;;;;;;;;;;6265978;22;20490;-84
2022/05/18 09:13:15;;;;;;;5.18;3.28;;;;;;;;;;6240996;22;20110;-84
2022/05/18 09:16:01;;;;;;;5.97;3.53;;;;;;;;;;6264947;22;20074;-84
2022/05/18 09:19:03;;;;;;;6.07;3.67;;;;;;;;;;6302267;22;20055;-84
2022/05/18 09:21:52;;;;;;;9.02;3.78;;;;;;;;;;6276004;22;20085;-84
2022/05/18 09:24:49;;;;;;;6.78;4.05;;;;;;;;;;6276035;22;20098;-84
2022/05/18 09:27:28;;;;;;;6.85;3.83;;;;;;;;;;6276350;22;20838;-84
2022/05/18 09:30:18;;;;;;;8.30;3.97;;;;;;;;;;6278750;22;20031;-84
2022/05/18 09:33:08;;;;;;;7.05;3.95;;;;;;;;;;6274720;22;20034;-84
2022/05/18 09:36:00;;;;;;;13.50;4.70;;;;;;;;;;6360626;22;20057;-84
2022/05/18 09:38:44;;;;;;;11.98;4.03;;;;;;;;;;6368658;22;20029;-84
2022/05/18 09:42:54;;;;;;;4.88;3.60;;;;;;;;;;6291032;22;20470;-85
2022/05/18 09:46:04;;;;;;;8.35;3.75;;;;;;;;;;6267376;22;20493;-85
2022/05/18 09:49:17;;;;;;;8.15;3.72;;;;;;;;;;6269509;22;20424;-84
2022/05/18 09:52:03;;;;;;;6.60;3.78;;;;;;;;;;6143091;23;20037;-84
2022/05/18 09:54:45;;;;;;;6.88;4.40;;;;;;;;;;6156520;23;20041;-84
2022/05/18 09:58:09;;;;;;;8.85;3.92;;;;;;;;;;6145599;23;20049;-84
2022/05/18 10:07:27;;;;;;;6.47;4.03;;;;;;;;;;6168542;23;20037;-86
2022/05/18 10:07:30;;;;;;;8.50;4.13;;;;;;;;;;6143528;23;20571;-85
2022/05/18 10:10:16;;;;;;;5.90;3.72;;;;;;;;;;6139227;23;20025;-84
2022/05/18 10:13:24;;;;;;;8.63;3.88;;;;;;;;;;6153066;23;20036;-85
2022/05/18 10:16:41;;;;;;;7.80;3.60;;;;;;;;;;6153691;23;20217;-84
2022/05/18 10:19:27;;;;;;;;;;;;;;;;;;6192649;23;20427;-85
2022/05/18 10:22:12;;;;;;;8.25;4.10;;;;;;;;;;6180155;23;20551;-85
2022/05/18 10:25:11;;;;;;;7.88;4.20;;;;;;;;;;6206566;23;20032;-84
2022/05/18 10:28:43;;;;;;;8.20;4.40;;;;;;;;;;6243061;22;20043;-86
2022/05/18 10:32:22;;;;;;;7.88;4.63;;;;;;;;;;6269708;22;20457;-85
2022/05/18 10:35:09;;;;;;;13.20;4.78;;;;;;;;;;6265958;22;20037;-86
2022/05/18 10:37:52;;;;;;;9.43;4.03;;;;;;;;;;6253305;22;20020;-85
2022/05/18 10:42:01;;;;;;;7.90;4.28;;;;;;;;;;6277899;22;20106;-87
2022/05/18 10:45:43;;;;;;;6.97;4.90;;;;;;;;;;6290788;22;20471;-86
2022/05/18 10:48:54;;;;;;;7.93;4.30;;;;;;;;;;6270624;22;20031;-85
2022/05/18 10:52:04;;;;;;;7.00;4.60;;;;;;;;;;6336725;22;20026;-87
2022/05/18 10:55:51;;;;;;;8.07;4.57;;;;;;;;;;6281975;22;20027;-87
2022/05/18 10:59:20;;;;;;;9.23;5.05;;;;;;;;;;6270090;22;20087;-85
2022/05/18 11:02:49;;;;;;;6.90;4.75;;;;;;;;;;6283332;22;20027;-85
2022/05/18 11:05:52;;;;;;;6.95;4.53;;;;;;;;;;6322525;22;20042;-85
2022/05/18 11:08:33;;;;;;;8.25;5.05;;;;;;;;;;6331587;22;20037;-85
2022/05/18 11:12:12;;;;;;;10.77;4.75;;;;;;;;;;6305803;22;20034;-87
2022/05/18 11:16:18;;;;;;;8.05;4.38;;;;;;;;;;6320395;22;20033;-87
2022/05/18 11:20:18;;;;;;;7.13;4.55;;;;;;;;;;6258416;22;20055;-87
2022/05/18 11:24:06;;;;;;;;;;;;;;;;;;6167659;23;20103;-86
2022/05/18 11:27:22;;;;;;;7.72;4.57;;;;;;;;;;6177053;23;19920;-85
2022/05/18 11:31:39;;;;;;;6.93;4.68;;;;;;;;;;6109807;23;20458;-85
2022/05/18 11:36:16;;;;;;;8.98;5.15;;;;;;;;;;6021532;23;20464;-86
2022/05/18 11:40:41;;;;;;;6.82;5.18;;;;;;;;;;5883107;24;20412;-87
2022/05/18 11:43:47;;;;;;;10.57;5.53;;;;;;;;;;5861288;24;20101;-85
2022/05/18 11:47:07;;;;;;;7.05;4.80;;;;;;;;;;5872998;24;20029;-84
2022/05/18 11:50:20;;;;;;;6.25;4.90;;;;;;;;;;5911519;24;20115;-85
2022/05/18 11:53:22;;;;;;;8.13;5.15;;;;;;;;;;5879643;24;20029;-85
2022/05/18 11:57:40;;;;;;;10.25;4.97;;;;;;;;;;5965704;23;20038;-85
2022/05/18 12:02:01;;;;;;;8.10;4.72;;;;;;;;;;5990509;23;20115;-87
2022/05/18 12:05:41;;;;;;;6.35;4.88;;;;;;;;;;5953419;24;20031;-85
2022/05/18 12:11:56;;;;;;;8.15;5.05;;;;;;;;;;6356384;22;20041;-85
2022/05/18 12:16:07;;;;;;;6.32;4.88;;;;;;;;;;6352645;22;20033;-86
2022/05/18 12:25:23;;;;;;;8.02;4.63;;;;;;;;;;6153427;23;20024;-86
2022/05/18 12:34:51;;;;;;;6.90;4.65;;;;;;;;;;6022303;23;20383;-86
2022/05/18 12:44:22;;;;;;;6.22;4.20;;;;;;;;;;6004554;23;20047;-85
2022/05/18 12:49:20;;;;;;;6.47;3.90;;;;;;;;;;5968868;24;20024;-84
2022/05/18 12:52:50;;;;;;;6.88;4.13;;;;;;;;;;5870808;24;20394;-85
2022/05/18 12:56:25;;;;;;;6.82;3.85;;;;;;;;;;5986479;23;20047;-84
2022/05/18 13:00:17;;;;;;;12.68;4.22;;;;;;;;;;6081458;23;20033;-85
2022/05/18 13:03:25;;;;;;;6.82;4.20;;;;;;;;;;6137261;23;20026;-84
2022/05/18 13:05:59;;;;;;;13.68;4.47;;;;;;;;;;6117927;23;20034;-84
2022/05/18 14:21:10;;;;;;;7.82;3.60;;;;;;;;;;6373683;22;20033;-88
